Time;durP1;ratioP1;P1;durP2;ratioP2;P2;SDS_P1;SDS_P2;PMS_P1;PMS_P2;Temp;Humidity;BMP_temperature;BMP_pressure;BME280_temperature;BME280_humidity;BME280_pressure;Samples;Min_cycle;Max_cycle;Signal;HPM_P1;HPM_P2
2021/01/08 00:01:42;;;;;;;6.90;2.60;;;19.60;53.40;;;;;;5093247;28;20028;-48
2021/01/08 00:04:08;;;;;;;5.22;2.55;;;19.50;53.50;;;;;;5094078;28;20479;-48
2021/01/08 00:06:35;;;;;;;6.50;1.98;;;19.50;53.50;;;;;;5093197;28;20028;-48
2021/01/08 00:09:02;;;;;;;6.57;2.40;;;19.40;53.50;;;;;;5093459;28;20024;-48
2021/01/08 00:11:28;;;;;;;8.65;2.80;;;19.40;53.60;;;;;;5094182;28;20459;-48
2021/01/08 00:13:55;;;;;;;8.82;2.75;;;19.40;53.70;;;;;;5094037;28;20028;-48
2021/01/08 00:16:21;;;;;;;8.95;2.80;;;19.40;53.90;;;;;;5093504;28;20115;-48
2021/01/08 00:18:48;;;;;;;7.45;2.30;;;19.30;53.80;;;;;;5093962;28;20099;-47
2021/01/08 00:21:14;;;;;;;9.18;2.60;;;19.30;53.90;;;;;;5093364;28;20485;-48
2021/01/08 00:23:41;;;;;;;8.80;2.80;;;19.30;54.00;;;;;;5093617;28;20480;-48
2021/01/08 00:26:07;;;;;;;8.25;2.58;;;19.20;53.90;;;;;;5093160;28;20119;-48
2021/01/08 00:28:34;;;;;;;11.65;2.63;;;19.20;54.10;;;;;;5092592;28;20028;-47
2021/01/08 00:31:00;;;;;;;17.33;9.32;;;19.10;54.20;;;;;;5093531;28;20054;-47
2021/01/08 00:33:27;;;;;;;20.23;12.77;;;19.20;54.20;;;;;;5093408;28;20071;-47
2021/01/08 00:35:54;;;;;;;12.10;6.88;;;19.10;54.30;;;;;;5093094;28;20063;-48
2021/01/08 00:38:20;;;;;;;16.00;5.68;;;19.10;54.40;;;;;;5093758;28;20028;-47
2021/01/08 00:40:47;;;;;;;14.07;5.32;;;19.00;54.40;;;;;;5093849;28;20020;-47
2021/01/08 00:43:13;;;;;;;12.32;4.80;;;19.00;54.50;;;;;;5093642;28;20112;-47
2021/01/08 00:45:40;;;;;;;11.07;4.38;;;19.00;54.60;;;;;;5097212;28;20067;-47
2021/01/08 00:48:07;;;;;;;13.13;4.00;;;19.00;54.70;;;;;;5097534;28;20032;-47
2021/01/08 00:50:33;;;;;;;14.05;4.47;;;19.00;54.90;;;;;;5097810;28;20452;-47
2021/01/08 00:53:00;;;;;;;18.52;4.10;;;19.00;55.00;;;;;;5097771;28;20054;-47
2021/01/08 00:55:26;;;;;;;10.80;4.32;;;19.10;55.10;;;;;;5098038;28;20028;-47
2021/01/08 00:57:53;;;;;;;8.73;3.45;;;19.20;55.20;;;;;;5097705;28;20035;-47
2021/01/08 01:00:20;;;;;;;9.55;4.22;;;19.20;55.20;;;;;;5097943;28;20024;-48
2021/01/08 01:02:46;;;;;;;16.27;4.18;;;19.30;55.20;;;;;;5097354;28;20106;-48
2021/01/08 01:05:13;;;;;;;17.73;4.10;;;19.50;55.20;;;;;;5097565;28;20020;-48
2021/01/08 01:07:39;;;;;;;12.38;4.30;;;19.50;55.00;;;;;;5097761;28;20032;-48
2021/01/08 01:10:06;;;;;;;14.15;4.18;;;19.60;54.80;;;;;;5097354;28;20073;-47
2021/01/08 01:12:33;;;;;;;14.70;3.80;;;19.70;54.60;;;;;;5096819;28;20028;-48
2021/01/08 01:14:59;;;;;;;12.35;3.80;;;19.80;54.50;;;;;;5097068;28;20028;-48
2021/01/08 01:17:26;;;;;;;9.32;3.67;;;19.90;54.40;;;;;;5097337;28;20027;-48
2021/01/08 01:19:54;;;;;;;9.50;3.60;;;20.00;54.30;;;;;;5096674;28;20463;-48
2021/01/08 01:22:20;;;;;;;10.07;2.97;;;20.00;54.20;;;;;;5097222;28;20040;-48
2021/01/08 01:24:47;;;;;;;11.73;3.40;;;20.10;54.10;;;;;;5097107;28;20028;-48
2021/01/08 01:27:13;;;;;;;8.27;3.60;;;20.10;53.90;;;;;;5097063;28;20028;-48
2021/01/08 01:29:40;;;;;;;8.13;3.17;;;20.20;53.80;;;;;;5097094;28;20464;-48
2021/01/08 01:32:06;;;;;;;12.02;3.50;;;20.20;53.70;;;;;;5096803;28;20043;-48
2021/01/08 01:34:33;;;;;;;7.95;3.35;;;20.30;53.60;;;;;;5096919;28;20038;-48
2021/01/08 01:36:59;;;;;;;12.13;3.78;;;20.30;53.50;;;;;;5096681;28;20540;-48
2021/01/08 01:39:26;;;;;;;9.23;3.10;;;20.40;53.40;;;;;;5096953;28;20020;-49
2021/01/08 01:41:52;;;;;;;6.95;3.35;;;20.40;53.30;;;;;;5096899;28;20024;-49
2021/01/08 01:44:19;;;;;;;10.15;3.55;;;20.50;53.30;;;;;;5082494;28;20536;-48
2021/01/08 01:46:45;;;;;;;6.03;3.10;;;20.50;53.30;;;;;;5085177;28;20024;-48
2021/01/08 01:49:12;;;;;;;8.65;3.05;;;20.50;53.20;;;;;;5096659;28;20486;-48
2021/01/08 01:51:38;;;;;;;10.85;3.63;;;20.60;53.10;;;;;;5096658;28;20024;-49
2021/01/08 01:54:07;;;;;;;7.75;2.90;;;20.70;53.00;;;;;;5096093;28;20384;-48
2021/01/08 01:56:33;;;;;;;10.05;3.10;;;20.80;53.00;;;;;;5096589;28;20034;-48
2021/01/08 01:59:00;;;;;;;5.72;2.90;;;20.90;52.80;;;;;;5096453;28;20074;-48
2021/01/08 02:01:27;;;;;;;8.75;3.20;;;20.90;52.70;;;;;;5096551;28;20106;-48
2021/01/08 02:03:57;;;;;;;9.32;3.22;;;21.00;52.60;;;;;;5096196;28;20028;-48
2021/01/08 02:06:45;;;;;;;8.02;3.03;;;21.10;52.40;;;;;;5096448;28;20375;-48
2021/01/08 02:09:14;;;;;;;7.07;3.03;;;21.20;53.00;;;;;;5097020;28;20410;-48
2021/01/08 02:11:46;;;;;;;11.30;3.42;;;21.30;52.10;;;;;;5096316;28;20487;-48
2021/01/08 02:14:17;;;;;;;6.38;2.83;;;21.50;52.00;;;;;;5095869;28;20093;-47
2021/01/08 02:16:45;;;;;;;9.67;2.80;;;21.60;51.80;;;;;;5096319;28;20035;-48
2021/01/08 02:19:36;;;;;;;7.15;3.00;;;21.70;51.60;;;;;;5095534;28;20093;-48
2021/01/08 02:22:47;;;;;;;9.23;2.83;;;21.80;51.40;;;;;;5096335;28;20119;-48
2021/01/08 02:25:23;;;;;;;7.93;2.53;;;21.90;51.10;;;;;;5076146;28;20040;-48
2021/01/08 02:28:05;;;;;;;7.50;2.70;;;22.00;50.90;;;;;;5096339;28;20031;-48
2021/01/08 02:30:36;;;;;;;6.20;2.67;;;22.20;50.70;;;;;;5096621;28;20107;-48
2021/01/08 02:33:04;;;;;;;6.07;2.63;;;22.30;50.60;;;;;;5095823;28;20032;-48
2021/01/08 02:35:34;;;;;;;5.60;2.53;;;22.40;50.50;;;;;;5075844;28;20375;-48
2021/01/08 02:38:01;;;;;;;4.82;2.30;;;22.50;50.20;;;;;;5075470;28;20032;-48
2021/01/08 02:40:28;;;;;;;6.53;2.53;;;22.60;50.00;;;;;;5077061;28;20029;-48
2021/01/08 02:43:06;;;;;;;4.20;2.45;;;22.70;49.90;;;;;;5095795;28;20032;-48
2021/01/08 02:45:33;;;;;;;7.00;2.40;;;22.80;49.70;;;;;;5095865;28;20456;-48
2021/01/08 02:48:00;;;;;;;9.40;2.67;;;22.90;49.50;;;;;;5095521;28;20074;-49
2021/01/08 02:50:27;;;;;;;5.88;2.80;;;23.00;49.30;;;;;;5095536;28;20534;-48
2021/01/08 02:53:02;;;;;;;4.93;2.50;;;23.10;49.10;;;;;;5095143;28;20045;-48
2021/01/08 02:55:34;;;;;;;6.72;2.67;;;23.20;49.00;;;;;;5095211;28;20019;-47
2021/01/08 02:58:03;;;;;;;5.78;2.20;;;23.20;48.80;;;;;;5095994;28;20062;-48
2021/01/08 03:00:31;;;;;;;7.47;2.70;;;23.30;48.70;;;;;;5095254;28;20407;-48
2021/01/08 03:02:59;;;;;;;4.00;2.38;;;23.40;48.50;;;;;;5095276;28;20053;-48
2021/01/08 03:05:30;;;;;;;6.60;2.20;;;23.50;48.40;;;;;;5095303;28;20430;-48
2021/01/08 03:07:57;;;;;;;6.05;2.30;;;23.60;48.20;;;;;;5094047;28;20032;-48
2021/01/08 03:10:25;;;;;;;4.47;2.22;;;23.70;48.10;;;;;;5095115;28;20036;-48
2021/01/08 03:12:57;;;;;;;3.97;2.13;;;23.90;47.90;;;;;;5095029;28;20034;-49
2021/01/08 03:15:24;;;;;;;6.03;2.35;;;24.00;47.70;;;;;;5095088;28;20028;-48
2021/01/08 03:17:51;;;;;;;6.40;2.30;;;24.10;47.60;;;;;;5093813;28;20456;-48
2021/01/08 03:20:18;;;;;;;5.40;2.38;;;24.20;47.30;;;;;;5094846;28;20452;-48
2021/01/08 03:22:44;;;;;;;7.30;2.40;;;24.40;47.20;;;;;;5094692;28;20058;-48
2021/01/08 03:25:11;;;;;;;5.40;2.40;;;24.50;47.10;;;;;;5094767;28;20417;-47
2021/01/08 03:27:38;;;;;;;9.45;2.45;;;24.70;46.90;;;;;;5094816;28;20074;-47
2021/01/08 03:30:07;;;;;;;8.95;2.42;;;24.80;46.70;;;;;;5095071;28;20069;-47
2021/01/08 03:32:34;;;;;;;5.60;1.98;;;24.90;46.50;;;;;;5093437;28;20423;-47
2021/01/08 03:35:01;;;;;;;9.35;2.00;;;25.00;46.20;;;;;;5094279;28;20463;-47
2021/01/08 03:37:27;;;;;;;4.70;2.17;;;25.10;46.10;;;;;;5094952;28;20024;-47
2021/01/08 03:39:54;;;;;;;6.22;2.03;;;25.20;45.80;;;;;;5094707;28;20052;-47
2021/01/08 03:42:20;;;;;;;5.03;1.85;;;25.30;45.80;;;;;;5094502;28;20050;-47
2021/01/08 03:44:47;;;;;;;5.32;1.70;;;25.40;45.60;;;;;;5094463;28;20047;-47
2021/01/08 03:47:13;;;;;;;4.47;2.08;;;25.50;45.60;;;;;;5094518;28;20024;-47
2021/01/08 03:49:40;;;;;;;6.50;2.03;;;25.50;45.30;;;;;;5094604;28;20020;-48
2021/01/08 03:52:07;;;;;;;5.22;1.90;;;25.60;45.30;;;;;;5093713;28;20028;-48
2021/01/08 03:54:35;;;;;;;6.50;2.00;;;25.60;45.10;;;;;;5094536;28;20031;-47
2021/01/08 03:57:02;;;;;;;5.50;2.25;;;25.70;45.00;;;;;;5094333;28;20032;-48
2021/01/08 03:59:29;;;;;;;4.00;1.88;;;25.80;45.00;;;;;;5094183;28;20035;-47
2021/01/08 04:01:56;;;;;;;2.92;1.60;;;25.80;44.80;;;;;;5094607;28;20027;-48
2021/01/08 04:04:22;;;;;;;4.10;2.08;;;25.80;44.70;;;;;;5094816;28;20105;-49
2021/01/08 04:06:50;;;;;;;5.05;1.75;;;25.90;44.70;;;;;;5093930;28;20055;-49
2021/01/08 04:09:18;;;;;;;5.13;1.98;;;25.90;44.60;;;;;;5094185;28;20020;-49
2021/01/08 04:11:45;;;;;;;3.53;1.70;;;25.90;44.50;;;;;;5094195;28;20042;-48
2021/01/08 04:14:12;;;;;;;5.22;1.60;;;26.00;44.60;;;;;;5094086;28;20040;-49
2021/01/08 04:16:41;;;;;;;4.13;1.70;;;25.90;44.40;;;;;;5094043;28;20107;-48
2021/01/08 04:19:08;;;;;;;5.95;1.90;;;25.90;44.30;;;;;;5093932;28;20024;-48
2021/01/08 04:21:35;;;;;;;3.72;1.58;;;26.00;44.40;;;;;;5093977;28;20095;-48
2021/01/08 04:24:03;;;;;;;3.38;1.38;;;25.90;44.20;;;;;;5094556;28;20063;-49
2021/01/08 04:26:30;;;;;;;3.03;1.50;;;25.90;44.30;;;;;;5093963;28;20028;-48
2021/01/08 04:28:57;;;;;;;7.05;1.60;;;26.00;44.20;;;;;;5091806;28;20391;-48
2021/01/08 04:31:24;;;;;;;3.60;1.55;;;26.00;44.30;;;;;;5093930;28;20020;-48
2021/01/08 04:33:50;;;;;;;5.20;1.35;;;25.90;44.20;;;;;;5093464;28;20387;-48
2021/01/08 04:36:17;;;;;;;2.67;1.38;;;25.90;44.20;;;;;;5093927;28;20028;-48
2021/01/08 04:38:43;;;;;;;3.70;1.70;;;25.90;44.20;;;;;;5093934;28;20513;-48
2021/01/08 04:41:10;;;;;;;2.78;1.40;;;25.90;44.20;;;;;;5094451;28;20145;-48
2021/01/08 04:43:37;;;;;;;4.15;1.33;;;25.80;44.20;;;;;;5084859;28;20036;-48
2021/01/08 04:46:34;;;;;;;3.10;1.50;;;25.80;44.20;;;;;;5073687;28;20024;-48
2021/01/08 04:49:10;;;;;;;3.28;1.50;;;25.80;44.20;;;;;;5086170;28;20040;-48
2021/01/08 04:51:37;;;;;;;6.18;1.65;;;25.80;44.30;;;;;;5093812;28;20375;-48
2021/01/08 04:54:05;;;;;;;3.42;1.50;;;25.70;44.30;;;;;;5093678;28;20067;-48
2021/01/08 04:56:41;;;;;;;3.60;1.13;;;25.70;44.30;;;;;;5093726;28;20495;-48
2021/01/08 04:59:07;;;;;;;1.67;1.00;;;25.60;44.20;;;;;;5093842;28;20028;-48
2021/01/08 05:01:38;;;;;;;3.60;1.40;;;25.60;44.40;;;;;;5093664;28;20028;-48
2021/01/08 05:04:05;;;;;;;3.08;1.33;;;25.60;44.40;;;;;;5093092;28;20644;-47
2021/01/08 05:06:32;;;;;;;1.90;1.38;;;25.50;44.40;;;;;;5093464;28;20124;-48
2021/01/08 05:08:59;;;;;;;3.65;1.40;;;25.50;44.50;;;;;;5093192;28;20056;-47
2021/01/08 05:11:30;;;;;;;4.38;1.02;;;25.50;44.50;;;;;;5093543;28;20468;-48
2021/01/08 05:14:02;;;;;;;2.83;1.03;;;25.40;44.50;;;;;;5093499;28;20031;-48
2021/01/08 05:16:29;;;;;;;;;;;25.30;44.50;;;;;;5094494;28;20111;-48
2021/01/08 05:18:57;;;;;;;3.15;1.40;;;25.30;44.70;;;;;;5092220;28;20252;-48
2021/01/08 05:21:25;;;;;;;3.28;1.50;;;25.30;44.60;;;;;;5093144;28;20474;-47
2021/01/08 05:23:52;;;;;;;6.88;1.60;;;25.20;44.70;;;;;;5093751;28;20131;-48
2021/01/08 05:26:19;;;;;;;7.40;1.42;;;25.20;44.70;;;;;;5093704;28;20085;-48
2021/01/08 05:28:59;;;;;;;5.07;1.40;;;25.10;44.70;;;;;;5093382;28;20111;-49
2021/01/08 05:31:29;;;;;;;1.88;1.25;;;25.10;44.60;;;;;;5096680;28;20020;-48
2021/01/08 05:33:56;;;;;;;3.72;1.35;;;25.10;44.70;;;;;;5096987;28;20111;-48
2021/01/08 05:36:24;;;;;;;2.92;1.50;;;25.00;44.70;;;;;;5097034;28;20032;-48
2021/01/08 05:38:52;;;;;;;4.32;1.35;;;24.90;44.70;;;;;;5096716;28;20028;-48
2021/01/08 05:41:29;;;;;;;3.05;1.15;;;24.90;44.80;;;;;;5097759;28;20027;-49
2021/01/08 05:43:57;;;;;;;4.15;1.30;;;24.80;44.90;;;;;;5096784;28;20104;-48
2021/01/08 05:46:32;;;;;;;9.40;1.40;;;24.80;44.90;;;;;;5096797;28;20027;-48
2021/01/08 05:49:01;;;;;;;3.30;1.50;;;24.70;45.00;;;;;;5096415;28;20028;-48
2021/01/08 05:51:31;;;;;;;2.92;1.40;;;24.60;45.00;;;;;;5097266;28;20121;-48
2021/01/08 05:54:01;;;;;;;2.63;1.48;;;24.60;45.10;;;;;;5096581;28;20020;-48
2021/01/08 05:56:32;;;;;;;6.32;1.50;;;24.50;45.20;;;;;;5096398;28;20028;-48
2021/01/08 05:59:01;;;;;;;2.93;1.30;;;24.50;45.30;;;;;;5096648;28;20027;-48
2021/01/08 06:01:29;;;;;;;3.53;1.65;;;24.40;45.40;;;;;;5096570;28;20252;-48
2021/01/08 06:03:56;;;;;;;3.40;1.40;;;24.30;45.30;;;;;;5096372;28;20032;-48
2021/01/08 06:06:24;;;;;;;3.28;1.40;;;24.30;45.40;;;;;;5096358;28;20024;-48
2021/01/08 06:08:54;;;;;;;3.55;1.30;;;24.20;45.50;;;;;;5096303;28;20028;-48
2021/01/08 06:11:31;;;;;;;4.47;1.38;;;24.10;45.50;;;;;;5096124;28;20032;-49
2021/01/08 06:14:02;;;;;;;2.70;1.40;;;24.10;45.60;;;;;;5096173;28;20024;-48
2021/01/08 06:16:39;;;;;;;2.42;1.30;;;24.00;45.60;;;;;;5096283;28;20024;-49
2021/01/08 06:19:06;;;;;;;5.22;1.40;;;24.00;45.80;;;;;;5096134;28;20064;-49
2021/01/08 06:21:43;;;;;;;3.65;1.50;;;23.90;45.80;;;;;;5095869;28;20081;-48
2021/01/08 06:24:30;;;;;;;4.10;1.63;;;23.80;45.80;;;;;;5095944;28;20040;-48
2021/01/08 06:26:57;;;;;;;2.65;1.50;;;23.80;45.90;;;;;;5096106;28;20035;-48
2021/01/08 06:29:32;;;;;;;3.50;1.30;;;23.70;46.00;;;;;;5095715;28;20464;-48
2021/01/08 06:32:16;;;;;;;2.88;1.25;;;23.70;46.10;;;;;;5095210;28;20020;-48
2021/01/08 06:34:47;;;;;;;2.75;1.20;;;23.60;46.10;;;;;;5095966;28;20032;-48
2021/01/08 06:37:18;;;;;;;4.55;1.48;;;23.50;46.20;;;;;;5095889;28;20486;-47
2021/01/08 06:39:46;;;;;;;4.60;1.40;;;23.50;46.30;;;;;;5095394;28;20027;-47
2021/01/08 06:42:29;;;;;;;3.28;1.20;;;23.40;46.40;;;;;;5095754;28;20468;-48
2021/01/08 06:44:57;;;;;;;3.33;1.50;;;23.30;47.10;;;;;;5075978;28;20033;-48
2021/01/08 06:47:24;;;;;;;3.63;1.50;;;23.30;46.60;;;;;;5092602;28;20016;-48
2021/01/08 06:49:54;;;;;;;4.90;1.48;;;23.20;46.60;;;;;;5095584;28;20036;-48
2021/01/08 06:52:24;;;;;;;3.58;1.42;;;23.10;46.60;;;;;;5095645;28;20032;-49
2021/01/08 06:54:55;;;;;;;5.10;1.75;;;23.10;46.80;;;;;;5093443;28;20494;-49
2021/01/08 17:24:32;;;;;;;9.77;3.88;;;14.00;65.70;;;;;;5120325;27;20906;-49
2021/01/08 17:26:59;;;;;;;9.07;3.65;;;13.70;65.50;;;;;;5111603;28;20055;-49
2021/01/08 17:29:28;;;;;;;10.55;3.65;;;13.80;66.20;;;;;;5111301;28;20038;-49
2021/01/08 17:31:59;;;;;;;8.65;3.22;;;13.90;67.20;;;;;;5111887;28;20020;-49
2021/01/08 17:34:26;;;;;;;7.75;3.45;;;14.00;66.60;;;;;;5111991;28;20020;-49
2021/01/08 17:36:53;;;;;;;10.07;3.28;;;14.20;66.60;;;;;;5111502;28;20425;-48
2021/01/08 17:39:19;;;;;;;9.45;3.00;;;14.40;66.40;;;;;;5111475;28;20084;-49
2021/01/08 17:41:46;;;;;;;6.55;2.83;;;14.60;66.10;;;;;;5111025;28;20024;-49
2021/01/08 17:44:12;;;;;;;8.88;3.00;;;14.80;65.80;;;;;;5111866;28;20027;-48
2021/01/08 17:46:39;;;;;;;9.85;3.17;;;15.00;65.40;;;;;;5111181;28;20032;-48
2021/01/08 17:49:05;;;;;;;7.68;3.05;;;15.30;65.00;;;;;;5110766;28;20058;-48
2021/01/08 17:51:32;;;;;;;7.07;2.85;;;15.50;64.60;;;;;;5111273;28;20124;-47
2021/01/08 17:53:58;;;;;;;8.68;3.25;;;15.70;64.20;;;;;;5110988;28;20463;-47
2021/01/08 17:56:25;;;;;;;7.53;2.50;;;15.90;63.70;;;;;;5106091;28;20085;-47
2021/01/08 17:58:52;;;;;;;9.00;3.13;;;16.10;63.20;;;;;;5095822;28;20032;-47
2021/01/08 18:01:19;;;;;;;7.63;2.85;;;16.40;62.80;;;;;;5092490;28;20024;-47
2021/01/08 18:03:47;;;;;;;20.05;13.18;;;16.60;62.40;;;;;;5107507;28;20046;-47
2021/01/08 18:06:15;;;;;;;9.32;7.40;;;16.70;61.90;;;;;;5110969;28;20073;-47
2021/01/08 18:08:43;;;;;;;12.65;9.43;;;16.90;61.40;;;;;;5110722;28;20051;-47
2021/01/08 18:11:11;;;;;;;14.93;9.20;;;17.10;60.90;;;;;;5110231;28;20106;-47
2021/01/08 18:13:39;;;;;;;15.35;8.80;;;17.30;60.60;;;;;;5110418;28;20395;-47
2021/01/08 18:16:06;;;;;;;14.20;7.88;;;17.50;60.80;;;;;;5110769;28;20028;-48
2021/01/08 18:18:33;;;;;;;12.55;7.70;;;17.60;59.90;;;;;;5110604;28;20031;-48
2021/01/08 18:20:59;;;;;;;12.05;7.22;;;17.80;59.60;;;;;;5110961;28;20039;-48
2021/01/08 18:23:26;;;;;;;8.80;6.53;;;18.00;59.20;;;;;;5110877;28;20143;-48
2021/01/08 18:25:53;;;;;;;8.20;6.43;;;18.10;58.80;;;;;;5110645;28;20019;-48
2021/01/08 18:28:23;;;;;;;9.70;6.38;;;18.30;58.40;;;;;;5110216;28;20110;-53
2021/01/08 18:30:50;;;;;;;9.93;6.32;;;18.50;58.20;;;;;;5110547;28;20028;-47
2021/01/08 18:33:17;;;;;;;13.23;5.88;;;18.70;57.70;;;;;;5110246;28;20423;-48
2021/01/08 18:35:45;;;;;;;17.58;5.78;;;18.90;57.30;;;;;;5097330;28;20148;-51
2021/01/08 18:38:11;;;;;;;16.00;5.97;;;19.00;57.50;;;;;;5096471;28;20486;-47
2021/01/08 18:40:38;;;;;;;13.65;5.90;;;19.20;56.50;;;;;;5096545;28;20028;-47
2021/01/08 18:43:05;;;;;;;8.63;4.82;;;19.40;56.10;;;;;;5096239;28;20044;-50
2021/01/08 18:45:31;;;;;;;14.05;5.38;;;19.60;55.80;;;;;;5097254;28;20024;-47
2021/01/08 18:47:58;;;;;;;10.32;5.15;;;19.70;55.30;;;;;;5096451;28;20449;-48
2021/01/08 18:50:24;;;;;;;10.70;4.93;;;19.90;55.00;;;;;;5096479;28;20024;-47
2021/01/08 18:52:51;;;;;;;10.95;4.90;;;20.10;54.60;;;;;;5096558;28;20479;-48
2021/01/08 18:55:18;;;;;;;10.95;4.88;;;20.20;54.40;;;;;;5095327;28;20024;-47
2021/01/08 18:57:44;;;;;;;13.65;4.40;;;20.40;54.20;;;;;;5096480;28;20039;-47
2021/01/08 19:00:13;;;;;;;16.13;5.10;;;20.50;53.90;;;;;;5096414;28;20031;-47
2021/01/08 19:02:39;;;;;;;9.68;4.60;;;20.60;53.90;;;;;;5096325;28;20024;-47
2021/01/08 19:05:07;;;;;;;14.63;4.85;;;20.70;54.00;;;;;;5096358;28;20462;-47
2021/01/08 19:07:36;;;;;;;13.10;5.13;;;20.80;53.90;;;;;;5096540;28;20031;-47
2021/01/08 19:10:06;;;;;;;12.15;4.70;;;21.00;53.70;;;;;;5095548;28;20032;-47
2021/01/08 19:12:32;;;;;;;11.35;4.45;;;21.10;53.40;;;;;;5096445;28;20028;-47
2021/01/08 19:14:59;;;;;;;7.47;4.53;;;21.30;53.30;;;;;;5095646;28;20020;-47
2021/01/08 19:17:25;;;;;;;9.82;4.47;;;21.40;53.00;;;;;;5094890;28;20035;-47
2021/01/08 19:19:52;;;;;;;11.80;4.35;;;21.50;52.80;;;;;;5094017;28;20032;-47
2021/01/08 19:22:19;;;;;;;7.15;4.30;;;21.60;52.50;;;;;;5095111;28;20035;-47
2021/01/08 19:24:45;;;;;;;14.00;4.30;;;21.70;52.30;;;;;;5095642;28;20024;-47
2021/01/08 19:27:12;;;;;;;8.35;3.88;;;21.80;52.00;;;;;;5095830;28;20383;-47
2021/01/08 19:29:40;;;;;;;7.93;4.13;;;21.90;51.80;;;;;;5095158;28;20031;-46
2021/01/08 19:32:10;;;;;;;16.10;4.43;;;22.00;51.60;;;;;;5094929;28;20035;-47
2021/01/08 19:34:37;;;;;;;10.80;3.50;;;22.20;51.40;;;;;;5084956;28;20028;-47
2021/01/08 19:37:04;;;;;;;7.78;3.90;;;22.20;51.30;;;;;;5095642;28;20359;-47
2021/01/08 19:39:31;;;;;;;8.75;3.85;;;22.30;51.10;;;;;;5095565;28;20032;-47
2021/01/08 19:41:59;;;;;;;7.10;3.42;;;22.40;50.90;;;;;;5095392;28;20417;-47
2021/01/08 19:44:27;;;;;;;7.88;3.58;;;22.50;50.80;;;;;;5095538;28;20028;-47
2021/01/08 19:46:53;;;;;;;6.70;3.90;;;22.60;51.30;;;;;;5094557;28;20490;-47
2021/01/08 19:49:20;;;;;;;7.75;3.65;;;22.60;50.30;;;;;;5095394;28;20027;-47
2021/01/08 19:51:53;;;;;;;5.68;3.33;;;22.70;50.30;;;;;;5095017;28;20064;-47
2021/01/08 19:54:21;;;;;;;6.47;3.20;;;22.70;50.10;;;;;;5095385;28;20525;-47
2021/01/08 19:56:49;;;;;;;9.20;3.50;;;22.80;50.00;;;;;;5095501;28;20035;-48
2021/01/08 19:59:15;;;;;;;9.48;4.20;;;22.90;50.00;;;;;;5094130;28;20020;-48
2021/01/08 20:01:43;;;;;;;10.43;4.60;;;22.90;49.90;;;;;;5093510;28;20036;-48
2021/01/08 20:04:10;;;;;;;6.57;3.50;;;23.00;49.80;;;;;;5094954;28;20026;-48
2021/01/08 20:06:37;;;;;;;14.32;3.92;;;23.00;49.60;;;;;;5095437;28;20036;-47
2021/01/08 20:09:04;;;;;;;11.88;4.47;;;23.00;49.50;;;;;;5095029;28;20020;-48
2021/01/08 20:11:32;;;;;;;11.65;3.60;;;23.00;49.40;;;;;;5094083;28;20055;-48
2021/01/08 20:13:59;;;;;;;9.23;3.67;;;23.00;49.30;;;;;;5094876;28;20055;-48
2021/01/08 20:16:26;;;;;;;11.38;3.90;;;23.10;49.90;;;;;;5094575;28;20032;-48
2021/01/08 20:18:53;;;;;;;8.57;3.70;;;23.00;49.20;;;;;;5094928;28;20031;-48
2021/01/08 20:21:21;;;;;;;10.85;3.40;;;23.00;49.20;;;;;;5095145;28;20037;-48
2021/01/08 20:23:47;;;;;;;8.20;3.45;;;23.00;49.10;;;;;;5093589;28;20507;-48
2021/01/08 20:26:14;;;;;;;8.05;3.88;;;22.90;49.10;;;;;;5094736;28;20463;-48
2021/01/08 20:28:40;;;;;;;11.00;3.75;;;22.90;49.10;;;;;;5094793;28;20028;-48
2021/01/08 20:31:07;;;;;;;12.98;4.32;;;22.90;49.80;;;;;;5094766;28;20464;-48
2021/01/08 20:33:34;;;;;;;10.20;3.50;;;22.80;49.20;;;;;;5094517;28;20123;-48
2021/01/08 20:36:02;;;;;;;9.93;4.25;;;22.80;49.30;;;;;;5094644;28;20055;-48
2021/01/08 20:38:28;;;;;;;6.55;3.67;;;22.70;49.20;;;;;;5094314;28;20445;-48
2021/01/08 20:40:55;;;;;;;9.63;4.10;;;22.70;49.30;;;;;;5094758;28;20038;-48
2021/01/08 20:43:22;;;;;;;7.25;3.72;;;22.60;49.30;;;;;;5094682;28;20479;-48
2021/01/08 20:45:49;;;;;;;6.05;3.53;;;22.70;49.40;;;;;;5094512;28;20098;-48
2021/01/08 20:48:16;;;;;;;12.43;4.22;;;22.60;49.40;;;;;;5094436;28;20024;-48
2021/01/08 20:50:43;;;;;;;10.10;3.75;;;22.60;49.50;;;;;;5094333;28;20379;-48
2021/01/08 20:53:11;;;;;;;6.82;3.53;;;22.60;49.50;;;;;;5094187;28;20028;-48
2021/01/08 20:55:38;;;;;;;8.93;3.70;;;22.60;49.50;;;;;;5094518;28;20039;-48
2021/01/08 20:58:05;;;;;;;5.55;3.30;;;22.50;49.50;;;;;;5094522;28;20032;-48
2021/01/08 21:00:32;;;;;;;7.13;3.75;;;22.50;49.50;;;;;;5093994;28;20032;-48
2021/01/08 21:03:01;;;;;;;7.55;3.55;;;22.50;49.50;;;;;;5094421;28;20028;-48
2021/01/08 21:05:30;;;;;;;8.25;3.05;;;22.50;49.50;;;;;;5094217;28;20074;-48
2021/01/08 21:07:57;;;;;;;5.57;3.17;;;22.50;49.50;;;;;;5093782;28;20031;-48
2021/01/08 21:10:26;;;;;;;5.80;3.00;;;22.50;49.50;;;;;;5094150;28;20016;-48
2021/01/08 21:12:53;;;;;;;5.05;3.30;;;22.50;49.50;;;;;;5093725;28;20375;-48
2021/01/08 21:15:22;;;;;;;5.57;2.97;;;22.50;49.50;;;;;;5094301;28;20032;-48
2021/01/08 21:17:50;;;;;;;6.35;3.10;;;22.50;49.60;;;;;;5094265;28;20036;-48
2021/01/08 21:20:19;;;;;;;5.88;3.00;;;22.50;49.50;;;;;;5094047;28;20057;-48
2021/01/08 21:22:45;;;;;;;6.07;2.70;;;22.50;49.50;;;;;;5093782;28;20088;-48
2021/01/08 21:25:13;;;;;;;4.65;2.42;;;22.50;49.50;;;;;;5094406;28;20035;-48
2021/01/08 21:27:44;;;;;;;6.00;3.10;;;22.50;49.50;;;;;;5094146;28;20036;-48
2021/01/08 21:30:12;;;;;;;6.75;2.90;;;22.50;49.40;;;;;;5093979;28;20076;-48
2021/01/08 21:32:39;;;;;;;6.57;2.92;;;22.50;49.40;;;;;;5093724;28;20498;-48
2021/01/08 21:35:09;;;;;;;4.60;2.88;;;22.50;49.40;;;;;;5093781;28;20028;-48
2021/01/08 21:37:41;;;;;;;4.60;2.53;;;22.50;49.50;;;;;;5094159;28;20020;-48
2021/01/08 21:40:10;;;;;;;4.60;2.28;;;22.50;49.50;;;;;;5093617;28;20528;-48
2021/01/08 21:42:39;;;;;;;5.18;2.50;;;22.50;49.50;;;;;;5093477;28;20376;-48
2021/01/08 21:45:06;;;;;;;4.03;2.30;;;22.50;49.40;;;;;;5093691;28;20032;-48
2021/01/08 21:47:34;;;;;;;5.70;2.80;;;22.50;49.40;;;;;;5093458;28;20020;-48
2021/01/08 21:50:01;;;;;;;7.55;2.40;;;22.50;49.30;;;;;;5094294;28;20028;-48
2021/01/08 21:52:27;;;;;;;4.35;2.30;;;22.60;49.40;;;;;;5093378;28;20024;-48
2021/01/08 21:54:55;;;;;;;4.72;2.30;;;22.50;49.30;;;;;;5093687;28;20056;-48
2021/01/08 21:57:22;;;;;;;2.80;1.98;;;22.60;49.40;;;;;;5093564;28;20027;-48
2021/01/08 21:59:50;;;;;;;4.75;2.17;;;22.50;49.30;;;;;;5093603;28;20115;-48
2021/01/08 22:02:16;;;;;;;6.13;2.13;;;22.50;49.30;;;;;;5093512;28;20452;-48
2021/01/08 22:04:43;;;;;;;4.13;2.13;;;22.60;49.90;;;;;;5093212;28;20441;-48
2021/01/08 22:07:10;;;;;;;4.53;2.17;;;22.50;49.30;;;;;;5092396;28;20024;-48
2021/01/08 22:09:36;;;;;;;4.60;2.25;;;22.50;49.20;;;;;;5093691;28;20038;-48
2021/01/08 22:12:06;;;;;;;4.18;2.13;;;22.50;49.30;;;;;;5096807;28;20493;-48
2021/01/08 22:14:33;;;;;;;5.50;2.38;;;22.50;49.30;;;;;;5097284;28;20098;-48
2021/01/08 22:16:59;;;;;;;6.47;2.03;;;22.50;49.30;;;;;;5097857;28;20024;-48
2021/01/08 22:19:26;;;;;;;4.68;2.17;;;22.50;49.30;;;;;;5096033;28;20031;-48
2021/01/08 22:21:55;;;;;;;4.22;2.22;;;22.50;49.30;;;;;;5096555;28;20451;-47
2021/01/08 22:24:25;;;;;;;4.03;2.00;;;22.50;49.40;;;;;;5097019;28;20052;-48
2021/01/08 22:26:52;;;;;;;7.80;1.90;;;22.40;49.40;;;;;;5096569;28;20035;-47
2021/01/08 22:29:19;;;;;;;5.72;2.25;;;22.40;49.50;;;;;;5095694;28;20027;-48
2021/01/08 22:31:45;;;;;;;4.63;2.55;;;22.50;49.60;;;;;;5096909;28;20085;-48
2021/01/08 22:34:13;;;;;;;5.32;2.47;;;22.50;49.70;;;;;;5096563;28;20043;-48
2021/01/08 22:36:39;;;;;;;3.65;2.03;;;22.50;49.70;;;;;;5097142;28;20028;-48
2021/01/08 22:39:08;;;;;;;3.72;1.90;;;22.60;49.80;;;;;;5097098;28;20412;-47
2021/01/08 22:41:35;;;;;;;7.03;2.25;;;22.60;49.70;;;;;;5096844;28;20020;-47
2021/01/08 22:44:01;;;;;;;7.68;2.20;;;22.70;49.70;;;;;;5096768;28;20044;-47
2021/01/08 22:46:28;;;;;;;6.65;2.10;;;22.70;49.60;;;;;;5096349;28;20046;-48
2021/01/08 22:48:54;;;;;;;8.57;2.10;;;22.80;49.50;;;;;;5096659;28;20028;-48
2021/01/08 22:51:26;;;;;;;7.85;2.00;;;22.90;49.40;;;;;;5096657;28;20028;-48
2021/01/08 22:53:54;;;;;;;7.22;2.35;;;23.00;49.30;;;;;;5096474;28;20036;-48
2021/01/08 22:56:24;;;;;;;4.43;1.90;;;23.00;49.30;;;;;;5096518;28;20028;-48
2021/01/08 22:58:55;;;;;;;4.85;1.92;;;23.10;49.10;;;;;;5096802;28;20063;-48
2021/01/08 23:01:23;;;;;;;4.85;1.80;;;23.20;49.00;;;;;;5096701;28;20031;-47
2021/01/08 23:03:49;;;;;;;6.55;1.85;;;23.30;48.90;;;;;;5096361;28;20165;-48
2021/01/08 23:06:16;;;;;;;4.50;1.83;;;23.40;48.80;;;;;;5096112;28;20028;-49
2021/01/08 23:08:44;;;;;;;3.03;1.52;;;23.50;48.70;;;;;;5096337;28;20103;-48
2021/01/08 23:11:10;;;;;;;2.95;1.73;;;23.60;48.50;;;;;;5096021;28;20471;-48
2021/01/08 23:13:37;;;;;;;3.25;1.70;;;23.60;48.30;;;;;;5096143;28;20118;-48
2021/01/08 23:16:05;;;;;;;5.15;1.73;;;23.70;48.30;;;;;;5096911;28;20372;-48
2021/01/08 23:18:32;;;;;;;8.23;1.88;;;23.80;48.10;;;;;;5096131;28;20114;-48